Time;durP1;ratioP1;P1;durP2;ratioP2;P2;SDS_P1;SDS_P2;PMS_P1;PMS_P2;Temp;Humidity;BMP_temperature;BMP_pressure;BME280_temperature;BME280_humidity;BME280_pressure;Samples;Min_cycle;Max_cycle;Signal;HPM_P1;HPM_P2
2022/07/20 00:01:40;;;;;;;7.63;5.80;;;;;;;22.99;55.93;96590.09;5055419;28;20231;-55
2022/07/20 00:04:08;;;;;;;7.25;4.68;;;;;;;23.00;55.62;96587.16;5057215;28;20239;-54
2022/07/20 00:06:34;;;;;;;4.68;3.85;;;;;;;22.97;57.03;96582.22;5056378;28;20206;-55
2022/07/20 00:11:46;;;;;;;4.63;3.95;;;;;;;22.97;57.00;96584.06;5056142;28;20217;-55
2022/07/20 00:14:12;;;;;;;4.38;4.05;;;;;;;22.90;58.27;96583.31;5055833;28;20229;-54
2022/07/20 00:16:39;;;;;;;4.70;4.20;;;;;;;22.93;57.82;96580.16;5056122;28;20221;-55
2022/07/20 00:19:06;;;;;;;4.75;4.13;;;;;;;22.92;57.51;96579.34;5055800;28;20727;-54
2022/07/20 00:21:34;;;;;;;4.75;4.32;;;;;;;22.96;56.79;96585.13;5055865;28;20215;-55
2022/07/20 00:24:00;;;;;;;4.82;4.22;;;;;;;22.90;57.88;96586.00;5055515;28;20205;-55
2022/07/20 00:26:27;;;;;;;6.28;4.32;;;;;;;22.89;58.10;96592.44;5055328;28;20627;-54
2022/07/20 00:28:54;;;;;;;5.82;4.57;;;;;;;22.90;57.90;96589.53;5055476;28;20593;-54
2022/07/20 00:31:21;;;;;;;5.60;4.32;;;;;;;22.79;60.40;96590.25;5055562;28;20213;-55
2022/07/20 00:33:48;;;;;;;7.03;4.40;;;;;;;22.79;59.75;96585.69;5055240;28;20238;-54
2022/07/20 00:36:16;;;;;;;6.00;4.80;;;;;;;22.85;59.08;96593.97;5055427;28;20230;-54
2022/07/20 00:38:44;;;;;;;5.03;4.63;;;;;;;22.82;59.95;96595.19;5055316;28;20199;-55
2022/07/20 00:41:11;;;;;;;6.13;4.78;;;;;;;22.77;60.05;96587.81;5054417;28;20253;-54
2022/07/20 00:43:57;;;;;;;4.97;4.47;;;;;;;22.79;59.91;96596.47;5055903;28;20234;-55
2022/07/20 00:46:24;;;;;;;5.18;4.70;;;;;;;22.74;61.00;96604.38;5046262;28;20238;-55
2022/07/20 00:48:50;;;;;;;5.50;5.00;;;;;;;22.71;61.30;96598.63;5055049;28;20239;-54
2022/07/20 00:51:17;;;;;;;5.10;4.60;;;;;;;22.71;60.93;96590.53;5055348;28;20271;-55
2022/07/20 00:53:46;;;;;;;5.28;4.78;;;;;;;22.70;61.29;96594.28;5055162;28;20237;-53
2022/07/20 00:56:12;;;;;;;6.65;4.80;;;;;;;22.66;62.65;96601.13;5053970;28;20302;-54
2022/07/20 00:58:39;;;;;;;5.30;4.47;;;;;;;22.63;62.48;96602.41;5055699;28;20207;-54
2022/07/20 01:01:06;;;;;;;4.97;4.60;;;;;;;22.59;63.76;96605.75;5055253;28;20546;-55
2022/07/20 01:03:32;;;;;;;5.03;4.53;;;;;;;22.66;62.37;96609.22;5041978;28;20281;-53
2022/07/20 01:06:00;;;;;;;6.18;4.70;;;;;;;22.66;62.42;96611.91;5054813;28;20205;-54
2022/07/20 01:08:28;;;;;;;4.78;4.35;;;;;;;22.69;62.23;96616.88;5055441;28;20299;-55
2022/07/20 01:10:56;;;;;;;4.97;4.47;;;;;;;22.70;62.86;96619.38;5054972;28;20199;-55
2022/07/20 01:13:23;;;;;;;4.93;4.53;;;;;;;22.71;62.68;96614.78;5053957;28;20250;-54
2022/07/20 01:15:49;;;;;;;6.05;4.50;;;;;;;22.73;62.45;96618.09;5054739;28;20242;-55
2022/07/20 01:18:16;;;;;;;5.25;4.82;;;;;;;22.71;63.08;96620.19;5054848;28;20211;-54
2022/07/20 01:20:46;;;;;;;4.60;4.28;;;;;;;22.69;63.38;96623.13;5054626;28;20230;-54
2022/07/20 01:23:14;;;;;;;5.00;4.47;;;;;;;22.68;63.86;96626.00;5054561;28;20657;-54
2022/07/20 01:25:40;;;;;;;6.25;4.72;;;;;;;22.64;64.81;96617.50;5054648;28;20199;-55
2022/07/20 01:28:07;;;;;;;5.03;4.68;;;;;;;22.64;64.35;96622.91;5041323;28;20648;-54
2022/07/20 01:30:34;;;;;;;6.22;4.85;;;;;;;22.68;63.62;96613.38;5053192;28;20265;-54
2022/07/20 01:33:01;;;;;;;5.30;4.80;;;;;;;22.70;63.51;96618.56;5054756;28;20221;-55
2022/07/20 01:35:27;;;;;;;6.75;4.80;;;;;;;22.67;62.83;96625.19;5054665;28;20326;-55
2022/07/20 01:37:54;;;;;;;5.38;4.50;;;;;;;22.65;63.31;96618.34;5054509;28;20222;-54
2022/07/20 01:40:22;;;;;;;5.60;4.65;;;;;;;22.56;64.01;96615.09;5054619;28;20199;-55
2022/07/20 01:42:49;;;;;;;5.55;4.80;;;;;;;22.57;64.03;96622.13;5069626;28;20235;-54
2022/07/20 01:45:16;;;;;;;5.05;4.53;;;;;;;22.56;63.16;96617.78;5059499;28;20276;-53
2022/07/20 01:47:43;;;;;;;4.68;4.28;;;;;;;22.58;62.27;96618.38;5076791;28;20231;-54
2022/07/20 01:50:10;;;;;;;4.43;4.05;;;;;;;22.56;62.04;96625.88;5068768;28;20194;-53
2022/07/20 01:52:37;;;;;;;4.90;4.50;;;;;;;22.49;62.18;96619.72;5059662;28;20231;-55
2022/07/20 01:55:04;;;;;;;4.72;4.32;;;;;;;22.45;63.93;96615.78;5056429;28;20273;-55
2022/07/20 01:57:32;;;;;;;6.55;4.55;;;;;;;22.39;63.05;96623.94;5056254;28;20213;-55
2022/07/20 01:59:59;;;;;;;5.28;4.50;;;;;;;22.39;63.39;96627.44;5056606;28;20227;-55
2022/07/20 02:02:25;;;;;;;5.40;4.90;;;;;;;22.42;62.90;96637.78;5056351;28;20207;-55
2022/07/20 02:04:52;;;;;;;5.30;4.90;;;;;;;22.41;62.90;96627.22;5055359;28;20341;-55
2022/07/20 02:07:18;;;;;;;5.22;4.75;;;;;;;22.37;63.40;96624.13;5050911;28;20211;-54
2022/07/20 02:09:45;;;;;;;6.78;4.90;;;;;;;22.38;63.17;96628.50;5058519;28;20218;-55
2022/07/20 02:12:12;;;;;;;4.47;4.18;;;;;;;22.28;64.17;96628.16;5059760;28;20610;-54
2022/07/20 02:14:40;;;;;;;5.20;4.32;;;;;;;22.26;64.29;96627.50;5076985;28;20187;-54
2022/07/20 02:17:06;;;;;;;4.72;4.32;;;;;;;22.23;63.69;96628.78;5076982;28;20231;-54
2022/07/20 02:19:33;;;;;;;6.00;4.63;;;;;;;22.28;61.81;96628.94;5077787;28;20188;-53
2022/07/20 02:22:00;;;;;;;4.93;4.18;;;;;;;22.23;62.73;96633.34;5078135;28;20190;-55
2022/07/20 02:24:26;;;;;;;5.00;4.50;;;;;;;22.18;62.91;96635.84;5077999;28;20262;-54
2022/07/20 02:26:53;;;;;;;8.32;4.68;;;;;;;22.15;62.94;96638.97;5080665;28;20191;-55
2022/07/20 02:29:22;;;;;;;4.97;4.50;;;;;;;22.12;63.43;96634.84;5078342;28;20223;-54
2022/07/20 02:31:50;;;;;;;5.50;4.57;;;;;;;22.14;63.11;96640.03;5077855;28;20253;-54
2022/07/20 02:34:17;;;;;;;5.68;4.32;;;;;;;22.14;63.06;96634.66;5081752;28;20255;-55
2022/07/20 02:36:43;;;;;;;5.57;4.78;;;;;;;22.04;64.52;96640.47;5081541;28;20207;-55
2022/07/20 02:39:10;;;;;;;5.20;4.70;;;;;;;22.00;64.67;96638.44;5064651;28;20639;-55
2022/07/20 02:41:37;;;;;;;4.60;4.20;;;;;;;21.95;65.51;96625.63;5057580;28;20269;-55
2022/07/20 02:44:03;;;;;;;4.97;4.43;;;;;;;21.95;65.13;96633.69;5043559;28;20679;-54
2022/07/20 02:46:30;;;;;;;6.15;5.20;;;;;;;21.94;64.70;96632.03;5057307;28;20533;-53
2022/07/20 02:48:58;;;;;;;6.63;4.68;;;;;;;21.93;65.13;96630.38;5056924;28;20270;-55
2022/07/20 02:51:24;;;;;;;5.88;5.28;;;;;;;21.83;66.44;96624.59;5056764;28;20203;-55
2022/07/20 02:53:51;;;;;;;8.13;4.85;;;;;;;21.77;66.96;96625.44;5057030;28;20245;-54
2022/07/20 02:56:18;;;;;;;6.82;5.10;;;;;;;21.73;66.80;96625.06;5057138;28;20238;-54
2022/07/20 02:58:46;;;;;;;7.55;4.95;;;;;;;21.70;67.30;96628.19;5056841;28;20234;-55
2022/07/20 03:01:12;;;;;;;6.43;5.00;;;;;;;21.71;66.45;96627.16;5056886;28;20249;-55
2022/07/20 03:03:39;;;;;;;6.70;5.20;;;;;;;21.70;66.98;96630.88;5056905;28;20273;-55
2022/07/20 03:06:07;;;;;;;5.80;5.03;;;;;;;21.73;66.55;96630.44;5056987;28;20195;-54
2022/07/20 03:08:35;;;;;;;5.30;4.80;;;;;;;21.67;67.78;96630.47;5056960;28;20235;-54
2022/07/20 03:11:02;;;;;;;5.75;5.15;;;;;;;21.63;68.07;96634.63;5056697;28;20203;-54
2022/07/20 03:13:29;;;;;;;6.40;5.45;;;;;;;21.65;66.97;96630.66;5054451;28;20260;-54
2022/07/20 03:15:55;;;;;;;5.30;4.97;;;;;;;21.64;67.35;96637.09;5049441;28;20237;-54
2022/07/20 03:18:22;;;;;;;7.55;5.30;;;;;;;21.59;67.80;96639.59;5056743;28;20290;-55
2022/07/20 03:20:48;;;;;;;5.95;5.35;;;;;;;21.60;67.35;96648.50;5056181;28;20217;-55
2022/07/20 03:23:16;;;;;;;6.05;5.22;;;;;;;21.54;68.67;96644.78;5056544;28;20663;-55
2022/07/20 03:25:43;;;;;;;5.93;5.28;;;;;;;21.49;68.62;96647.28;5056480;28;20313;-55
2022/07/20 03:28:10;;;;;;;6.38;5.78;;;;;;;21.49;69.19;96646.47;5055763;28;20234;-54
2022/07/20 03:30:37;;;;;;;5.75;5.25;;;;;;;21.45;69.59;96659.50;5056184;28;20207;-55
2022/07/20 03:33:03;;;;;;;6.30;5.70;;;;;;;21.47;68.51;96657.41;5056423;28;20209;-54
2022/07/20 03:35:30;;;;;;;9.15;6.95;;;;;;;21.36;69.71;96658.09;5055789;28;20653;-53
2022/07/20 03:37:57;;;;;;;9.05;6.25;;;;;;;21.36;70.33;96662.63;5055456;28;20234;-54
2022/07/20 03:40:25;;;;;;;10.32;6.03;;;;;;;21.29;69.50;96670.72;5055751;28;20234;-54
2022/07/20 03:42:51;;;;;;;7.55;5.50;;;;;;;21.21;70.55;96660.19;5055401;28;20242;-55
2022/07/20 03:45:18;;;;;;;7.78;5.50;;;;;;;21.23;71.07;96674.22;5058133;28;20235;-55
2022/07/20 03:47:46;;;;;;;5.72;5.20;;;;;;;21.21;71.37;96666.38;5075276;28;20279;-54
2022/07/20 03:50:12;;;;;;;6.03;5.57;;;;;;;21.14;72.63;96675.50;5076177;28;20199;-54
2022/07/20 03:52:39;;;;;;;6.07;5.45;;;;;;;21.08;72.57;96670.91;5062938;28;20230;-55
2022/07/20 03:55:07;;;;;;;6.55;6.03;;;;;;;21.09;72.78;96675.25;5056240;28;20288;-53
2022/07/20 03:57:35;;;;;;;6.40;5.80;;;;;;;21.13;71.73;96676.53;5055542;28;20678;-55
2022/07/20 04:00:01;;;;;;;6.15;5.65;;;;;;;21.14;71.31;96676.31;5055119;28;20294;-54
2022/07/20 04:02:28;;;;;;;7.07;5.80;;;;;;;21.16;71.13;96681.47;5055800;28;20222;-55
2022/07/20 04:04:56;;;;;;;6.78;5.80;;;;;;;21.13;72.85;96679.22;5055778;28;20221;-54
2022/07/20 04:07:22;;;;;;;6.60;6.00;;;;;;;21.14;72.58;96680.88;5055681;28;20195;-54
2022/07/20 04:09:49;;;;;;;6.30;5.80;;;;;;;21.10;73.92;96683.16;5055318;28;20231;-53
2022/07/20 04:12:18;;;;;;;6.63;5.70;;;;;;;21.15;72.48;96683.34;5055307;28;20215;-53
2022/07/20 04:14:47;;;;;;;6.72;6.10;;;;;;;21.14;73.25;96692.47;5055510;28;20223;-53
2022/07/20 04:17:14;;;;;;;7.75;5.88;;;;;;;21.16;73.15;96695.75;5055700;28;20593;-54
2022/07/20 04:19:41;;;;;;;6.32;5.80;;;;;;;21.25;72.69;96691.00;5055323;28;20287;-54
2022/07/20 04:22:08;;;;;;;7.47;6.53;;;;;;;21.26;73.33;96692.63;5055463;28;20301;-54
2022/07/20 04:24:34;;;;;;;6.13;5.72;;;;;;;21.31;73.71;96700.91;5055087;28;20242;-55
2022/07/20 04:27:02;;;;;;;6.88;5.82;;;;;;;21.42;73.93;96689.53;5055397;28;20242;-55
2022/07/20 04:29:28;;;;;;;6.20;5.70;;;;;;;21.53;74.36;96696.97;5055125;28;20238;-55
2022/07/20 04:31:58;;;;;;;6.20;5.70;;;;;;;21.68;73.56;96702.09;5054987;28;20299;-54
2022/07/20 04:34:24;;;;;;;6.70;6.10;;;;;;;21.80;73.48;96700.41;5055074;28;20234;-55
2022/07/20 04:36:51;;;;;;;6.43;5.85;;;;;;;21.91;73.27;96705.16;5054769;28;20231;-55
2022/07/20 04:39:18;;;;;;;6.68;5.97;;;;;;;22.08;72.27;96708.22;5054700;28;20245;-54
2022/07/20 04:41:44;;;;;;;6.70;6.00;;;;;;;22.39;71.40;96704.78;5054713;28;20623;-56
2022/07/20 04:44:11;;;;;;;6.75;6.05;;;;;;;22.83;70.16;96709.28;5055189;28;20325;-55
2022/07/20 04:46:37;;;;;;;7.45;6.53;;;;;;;23.12;69.43;96698.69;5055090;28;20233;-55
2022/07/20 04:49:07;;;;;;;6.63;5.97;;;;;;;23.38;64.92;96711.16;5054311;28;20258;-55
2022/07/20 04:51:34;;;;;;;6.10;5.50;;;;;;;23.44;61.87;96712.16;5054580;28;20203;-55
2022/07/20 04:54:00;;;;;;;6.70;5.45;;;;;;;23.46;60.31;96716.28;5044623;28;20243;-55
2022/07/20 04:56:27;;;;;;;6.22;5.63;;;;;;;23.42;62.21;96706.97;5054246;28;20321;-54
2022/07/20 04:58:55;;;;;;;6.53;5.38;;;;;;;23.48;63.69;96714.19;5053900;28;20301;-55
2022/07/20 05:01:22;;;;;;;5.93;5.40;;;;;;;23.61;64.19;96713.22;5054099;28;20195;-54
2022/07/20 05:03:48;;;;;;;6.38;5.32;;;;;;;23.68;64.03;96704.00;5054802;28;20214;-54
2022/07/20 05:06:16;;;;;;;6.13;5.32;;;;;;;23.76;65.47;96706.44;5053804;28;20207;-54
2022/07/20 05:08:44;;;;;;;7.47;6.10;;;;;;;23.79;66.22;96711.38;5054426;28;20238;-53
2022/07/20 05:11:11;;;;;;;7.07;5.97;;;;;;;23.87;63.60;96717.53;5054120;28;20685;-52
2022/07/20 05:13:37;;;;;;;7.75;5.57;;;;;;;23.92;64.28;96706.88;5054337;28;20694;-54
2022/07/20 05:16:05;;;;;;;9.73;5.80;;;;;;;24.04;63.89;96710.47;5053315;28;20206;-53
2022/07/20 05:18:31;;;;;;;7.32;5.60;;;;;;;24.16;63.16;96716.81;5048639;28;20692;-54
2022/07/20 05:20:58;;;;;;;5.78;5.32;;;;;;;24.33;63.08;96711.63;5051079;28;20213;-52
2022/07/20 05:23:26;;;;;;;6.03;5.47;;;;;;;24.51;61.77;96712.41;5053964;28;20528;-53
2022/07/20 05:25:53;;;;;;;6.38;5.72;;;;;;;24.63;61.39;96707.03;5054262;28;20243;-53
2022/07/20 05:28:20;;;;;;;6.60;5.90;;;;;;;24.83;61.20;96706.75;5053513;28;20227;-54
2022/07/20 05:30:47;;;;;;;6.75;5.88;;;;;;;24.96;62.34;96717.41;5054052;28;20221;-53
2022/07/20 05:33:16;;;;;;;8.85;5.80;;;;;;;25.06;59.01;96702.25;5054243;28;20206;-53
2022/07/20 05:35:44;;;;;;;8.43;6.00;;;;;;;25.22;58.69;96708.88;5054220;28;20206;-53
2022/07/20 05:38:10;;;;;;;6.43;5.25;;;;;;;25.32;58.16;96703.72;5053022;28;20357;-53
2022/07/20 05:40:38;;;;;;;7.28;5.90;;;;;;;25.32;57.30;96711.84;5054156;28;20214;-53
2022/07/20 05:43:05;;;;;;;8.85;6.07;;;;;;;25.32;55.68;96711.00;5053745;28;20219;-54
2022/07/20 05:45:31;;;;;;;7.35;5.85;;;;;;;25.35;59.85;96715.94;5053918;28;20226;-54
2022/07/20 05:47:58;;;;;;;7.03;6.05;;;;;;;25.42;61.23;96717.50;5054043;28;20270;-53
2022/07/20 05:50:25;;;;;;;9.93;5.43;;;;;;;25.57;60.79;96722.47;5059145;28;20242;-54
2022/07/20 05:52:51;;;;;;;6.60;5.90;;;;;;;25.62;56.60;96725.28;5074823;28;20186;-54
2022/07/20 05:55:18;;;;;;;8.30;6.43;;;;;;;25.70;59.81;96735.78;5075952;28;20234;-53
2022/07/20 05:57:46;;;;;;;6.38;5.88;;;;;;;25.74;60.10;96734.25;5058943;28;20234;-54
2022/07/20 06:00:14;;;;;;;6.63;5.90;;;;;;;25.80;58.42;96732.47;5055366;28;20282;-53
2022/07/20 06:02:40;;;;;;;10.30;7.40;;;;;;;25.94;58.10;96739.28;5058159;28;20206;-53
2022/07/20 06:05:09;;;;;;;7.25;6.40;;;;;;;26.11;59.32;96737.53;5057835;28;20313;-53
2022/07/20 06:07:35;;;;;;;8.07;5.95;;;;;;;26.31;57.32;96737.97;5057986;28;20354;-54
2022/07/20 06:10:02;;;;;;;6.65;5.97;;;;;;;26.54;57.07;96746.03;5058087;28;20204;-53
2022/07/20 06:12:29;;;;;;;9.43;5.93;;;;;;;26.76;54.84;96737.22;5057318;28;20666;-53
2022/07/20 06:14:57;;;;;;;12.07;6.25;;;;;;;26.97;52.93;96742.81;5057092;28;20298;-53
2022/07/20 06:17:23;;;;;;;7.57;6.00;;;;;;;27.19;52.65;96738.34;5057597;28;20230;-54
2022/07/20 06:19:50;;;;;;;6.18;5.50;;;;;;;27.48;54.34;96739.13;5053547;28;20222;-52
2022/07/20 06:22:17;;;;;;;9.82;6.05;;;;;;;27.62;51.88;96736.91;5054286;28;20253;-53
2022/07/20 06:24:43;;;;;;;8.68;6.15;;;;;;;27.72;50.60;96749.81;5053172;28;20239;-54
2022/07/20 06:27:10;;;;;;;8.60;5.90;;;;;;;27.87;51.97;96748.16;5052885;28;20245;-53
2022/07/20 06:29:36;;;;;;;10.18;6.68;;;;;;;27.92;50.76;96747.38;5051921;28;20210;-53
2022/07/20 06:32:05;;;;;;;8.00;6.10;;;;;;;27.92;51.64;96756.38;5049743;28;20592;-52
2022/07/20 06:34:31;;;;;;;8.50;6.30;;;;;;;27.91;50.21;96753.91;5052724;28;20195;-54
2022/07/20 06:36:58;;;;;;;8.77;5.78;;;;;;;27.78;50.28;96765.13;5057561;28;20227;-55
2022/07/20 06:39:25;;;;;;;10.15;6.32;;;;;;;27.51;49.45;96765.78;5057518;28;20211;-56
2022/07/20 06:41:51;;;;;;;7.35;6.20;;;;;;;27.28;50.27;96765.91;5057453;28;20221;-52
2022/07/20 06:44:18;;;;;;;6.85;5.80;;;;;;;27.08;54.97;96760.13;5057085;28;20226;-53
2022/07/20 06:46:44;;;;;;;8.60;6.20;;;;;;;26.92;56.15;96755.50;5056416;28;20206;-53
2022/07/20 06:49:14;;;;;;;8.75;6.18;;;;;;;26.77;53.49;96760.59;5056604;28;20754;-53
2022/07/20 06:51:40;;;;;;;7.03;6.35;;;;;;;26.64;57.26;96751.66;5057185;28;20199;-53
2022/07/20 06:54:07;;;;;;;10.15;6.40;;;;;;;26.58;57.52;96760.75;5057013;28;20203;-54
2022/07/20 06:56:33;;;;;;;8.85;6.30;;;;;;;26.47;55.01;96752.66;5056795;28;20234;-54
2022/07/20 06:59:00;;;;;;;7.53;5.57;;;;;;;26.42;57.35;96750.69;5056446;28;20500;-54
2022/07/20 07:01:27;;;;;;;10.13;5.88;;;;;;;26.42;55.43;96747.97;5056922;28;20214;-54
2022/07/20 07:03:53;;;;;;;10.55;5.40;;;;;;;26.45;56.54;96752.91;5056420;28;20203;-54
2022/07/20 07:06:24;;;;;;;9.73;6.22;;;;;;;26.41;56.09;96762.59;5054349;28;20200;-53
2022/07/20 07:08:50;;;;;;;11.45;6.00;;;;;;;26.33;58.79;96759.41;5044024;28;20248;-54
2022/07/20 07:11:17;;;;;;;7.50;6.28;;;;;;;26.24;56.18;96764.41;5055500;28;20207;-55
2022/07/20 07:13:43;;;;;;;8.30;6.43;;;;;;;26.21;56.81;96767.59;5056451;28;20207;-55
2022/07/20 07:16:10;;;;;;;8.63;6.18;;;;;;;26.18;59.44;96762.66;5056097;28;20210;-53
2022/07/20 07:18:37;;;;;;;8.27;6.30;;;;;;;26.15;58.07;96776.63;5055862;28;20313;-54
2022/07/20 07:21:04;;;;;;;7.28;5.72;;;;;;;26.14;57.27;96764.16;5056180;28;20289;-52
2022/07/20 07:23:32;;;;;;;9.73;6.28;;;;;;;26.19;57.50;96759.69;5056765;28;20646;-53
2022/07/20 07:25:59;;;;;;;6.75;6.07;;;;;;;26.35;59.30;96763.56;5056662;28;20235;-53
2022/07/20 07:28:25;;;;;;;6.60;5.65;;;;;;;26.61;59.42;96760.28;5056619;28;20254;-53
2022/07/20 07:30:52;;;;;;;6.95;6.25;;;;;;;26.86;57.12;96761.88;5055137;28;20239;-54
2022/07/20 07:33:24;;;;;;;7.10;6.40;;;;;;;27.01;54.20;96762.16;5056755;28;20221;-52
2022/07/20 07:35:51;;;;;;;8.73;6.55;;;;;;;27.20;54.77;96758.16;5056430;28;20290;-53
2022/07/20 07:38:17;;;;;;;8.90;5.90;;;;;;;27.37;55.11;96759.00;5056530;28;20271;-54
2022/07/20 07:40:45;;;;;;;7.90;6.70;;;;;;;27.48;54.71;96757.31;5055434;28;20290;-55
2022/07/20 07:43:12;;;;;;;7.10;6.32;;;;;;;27.54;55.86;96754.44;5052395;28;20239;-54
2022/07/20 07:45:39;;;;;;;7.88;6.28;;;;;;;27.74;55.06;96758.56;5049549;28;20671;-53
2022/07/20 07:48:09;;;;;;;9.32;6.63;;;;;;;27.89;54.01;96758.75;5050553;28;20229;-54
2022/07/20 07:50:36;;;;;;;8.57;6.55;;;;;;;28.08;52.05;96760.16;5046777;28;20200;-54
2022/07/20 07:53:03;;;;;;;7.15;6.40;;;;;;;28.28;52.35;96755.00;5050673;28;20194;-54
2022/07/20 07:55:29;;;;;;;9.38;6.72;;;;;;;28.53;53.12;96766.22;5058025;28;20213;-56
2022/07/20 07:57:57;;;;;;;9.85;6.95;;;;;;;28.77;50.39;96766.78;5057050;28;20254;-54
2022/07/20 08:00:24;;;;;;;10.80;6.93;;;;;;;29.01;51.48;96767.34;5049028;28;20199;-54
2022/07/20 08:02:50;;;;;;;13.18;6.70;;;;;;;29.11;51.52;96770.16;5054435;28;20646;-54
2022/07/20 08:05:17;;;;;;;9.82;6.90;;;;;;;29.22;51.60;96771.09;5054584;28;20231;-53
2022/07/20 08:07:44;;;;;;;12.98;6.93;;;;;;;29.24;51.41;96769.75;5055510;28;20248;-54
2022/07/20 08:10:10;;;;;;;8.40;6.30;;;;;;;29.20;51.59;96773.22;5054366;28;20202;-54
2022/07/20 08:12:37;;;;;;;8.13;7.03;;;;;;;29.36;52.29;96777.81;5054983;28;20203;-54
2022/07/20 08:15:06;;;;;;;9.02;6.53;;;;;;;29.71;50.35;96790.91;5055331;28;20238;-55
2022/07/20 08:17:33;;;;;;;8.88;6.78;;;;;;;30.04;49.64;96780.53;5055117;28;20223;-54
2022/07/20 08:20:00;;;;;;;7.18;6.57;;;;;;;30.35;49.01;96783.47;5055172;28;20203;-54
2022/07/20 08:22:27;;;;;;;7.90;7.25;;;;;;;30.32;46.99;96784.00;5055254;28;20213;-54
2022/07/20 08:24:55;;;;;;;8.27;6.65;;;;;;;30.27;47.08;96786.69;5055447;28;20221;-52
2022/07/20 08:27:22;;;;;;;7.55;6.85;;;;;;;30.18;46.76;96780.94;5055259;28;20199;-54
2022/07/20 08:29:48;;;;;;;7.20;6.60;;;;;;;30.01;47.15;96788.41;5054942;28;20265;-54
2022/07/20 08:32:16;;;;;;;7.72;7.10;;;;;;;30.02;47.52;96782.72;5054827;28;20536;-54
2022/07/20 08:34:43;;;;;;;7.95;7.25;;;;;;;30.21;47.67;96780.38;5054473;28;20778;-54
2022/07/20 08:37:10;;;;;;;7.30;6.70;;;;;;;30.39;47.31;96788.13;5055164;28;20199;-55
2022/07/20 08:39:36;;;;;;;7.07;6.47;;;;;;;30.37;46.12;96787.56;5055566;28;20234;-53
2022/07/20 08:42:03;;;;;;;6.63;6.20;;;;;;;30.39;44.65;96784.59;5055119;28;20611;-54
2022/07/20 08:44:29;;;;;;;7.15;6.53;;;;;;;30.76;44.74;96779.03;5055049;28;20206;-55
2022/07/20 08:46:57;;;;;;;7.03;6.53;;;;;;;31.00;45.57;96780.22;5054432;28;20207;-54
2022/07/20 08:49:26;;;;;;;6.75;6.15;;;;;;;31.28;44.89;96779.78;5054814;28;20226;-54
2022/07/20 08:51:52;;;;;;;8.65;7.93;;;;;;;31.53;44.73;96782.53;5054811;28;20230;-54
2022/07/20 08:54:19;;;;;;;8.88;6.50;;;;;;;31.66;44.59;96777.63;5053286;28;20199;-56
2022/07/20 08:56:45;;;;;;;7.10;6.40;;;;;;;31.58;42.75;96779.81;5053910;28;20223;-56
2022/07/20 08:59:12;;;;;;;7.57;6.88;;;;;;;31.50;42.76;96777.59;5053458;28;20762;-53
2022/07/20 09:01:59;;;;;;;6.93;6.32;;;;;;;31.54;44.41;96773.25;5053978;28;20222;-54
2022/07/20 09:04:28;;;;;;;7.90;6.68;;;;;;;31.62;42.63;96776.53;5054069;28;20211;-54
2022/07/20 09:06:55;;;;;;;7.63;6.82;;;;;;;31.70;42.15;96776.00;5053410;28;20235;-53
2022/07/20 09:09:22;;;;;;;7.07;6.57;;;;;;;31.51;44.23;96762.88;5054418;28;20203;-57
2022/07/20 09:11:49;;;;;;;6.53;6.03;;;;;;;31.47;41.89;96772.69;5053813;28;20246;-54
2022/07/20 09:14:36;;;;;;;8.48;6.60;;;;;;;31.18;43.31;96773.47;5053396;28;20632;-54
2022/07/20 09:17:15;;;;;;;7.30;6.50;;;;;;;30.99;44.47;96775.88;5050095;28;20627;-53
2022/07/20 09:19:56;;;;;;;7.50;6.80;;;;;;;31.00;44.74;96780.22;5048278;28;20564;-54
2022/07/20 09:22:31;;;;;;;7.13;6.57;;;;;;;31.26;45.87;96784.66;5046564;28;20245;-52
2022/07/20 09:25:10;;;;;;;7.72;7.03;;;;;;;31.57;44.74;96788.28;5049204;28;20198;-53
2022/07/20 09:27:36;;;;;;;7.72;6.45;;;;;;;31.61;44.00;96777.63;5049467;28;20639;-53
2022/07/20 09:30:05;;;;;;;7.78;7.07;;;;;;;31.66;45.62;96783.09;5048608;28;20207;-53
2022/07/20 09:32:32;;;;;;;7.43;6.72;;;;;;;31.69;45.58;96785.28;5053542;28;20199;-53
2022/07/20 09:35:02;;;;;;;7.22;6.60;;;;;;;31.77;44.53;96784.75;5054196;28;20234;-53
2022/07/20 09:37:41;;;;;;;8.85;6.78;;;;;;;31.80;41.48;96795.13;5055833;28;20210;-52
2022/07/20 09:40:09;;;;;;;7.95;6.82;;;;;;;31.70;41.87;96789.69;5058470;28;20322;-52
2022/07/20 09:42:39;;;;;;;7.63;6.60;;;;;;;31.56;42.63;96792.97;5058645;28;20234;-53
2022/07/20 09:45:23;;;;;;;7.68;6.90;;;;;;;31.56;44.50;96787.50;5058380;28;20235;-53
2022/07/20 09:48:08;;;;;;;11.00;9.15;;;;;;;31.56;43.98;96792.97;5058160;28;20254;-53
2022/07/20 09:50:38;;;;;;;7.32;6.63;;;;;;;31.54;43.26;96788.84;5058825;28;20242;-53
2022/07/20 09:53:06;;;;;;;7.20;6.55;;;;;;;31.72;43.88;96792.94;5058754;28;20539;-54
2022/07/20 09:55:34;;;;;;;8.13;7.05;;;;;;;31.85;43.87;96797.88;5057705;28;20199;-53
2022/07/20 09:58:01;;;;;;;7.40;6.70;;;;;;;31.88;42.65;96786.38;5057734;28;20258;-53
2022/07/20 10:00:28;;;;;;;7.38;6.72;;;;;;;31.95;41.88;96789.66;5059187;28;20230;-54
2022/07/20 10:02:57;;;;;;;6.95;6.45;;;;;;;31.96;42.79;96785.81;5069132;28;20223;-54
2022/07/20 10:05:25;;;;;;;6.75;6.25;;;;;;;31.92;42.63;96782.00;5060728;28;20218;-56
2022/07/20 10:07:52;;;;;;;9.07;7.45;;;;;;;32.08;42.82;96794.59;5059451;28;20209;-55
2022/07/20 10:10:19;;;;;;;7.30;6.80;;;;;;;32.29;42.26;96790.72;5058073;28;20504;-55
2022/07/20 10:12:46;;;;;;;7.05;6.35;;;;;;;32.24;40.19;96788.00;5058216;28;20281;-54
2022/07/20 10:15:14;;;;;;;6.95;6.45;;;;;;;32.08;40.33;96791.88;5057656;28;20203;-55
2022/07/20 10:17:43;;;;;;;8.18;7.00;;;;;;;31.87;39.94;96785.56;5058025;28;20253;-55
2022/07/20 10:20:32;;;;;;;8.30;6.78;;;;;;;32.04;41.51;96780.63;5057999;28;20203;-56
2022/07/20 10:23:28;;;;;;;7.68;6.80;;;;;;;32.19;41.13;96779.81;5058154;28;20219;-53
2022/07/20 10:25:56;;;;;;;9.13;6.78;;;;;;;32.31;40.78;96782.25;5057813;28;20208;-55
2022/07/20 10:28:35;;;;;;;7.53;7.03;;;;;;;32.39;40.75;96779.75;5057846;28;20647;-55
2022/07/20 10:31:06;;;;;;;6.80;6.30;;;;;;;32.46;38.87;96780.28;5057939;28;20206;-56
2022/07/20 10:33:34;;;;;;;6.40;5.80;;;;;;;32.52;38.34;96779.16;5058497;28;20226;-56
2022/07/20 10:38:59;;;;;;;6.40;5.80;;;;;;;32.81;39.71;96767.56;5058604;28;20222;-55
2022/07/20 10:41:39;;;;;;;6.13;5.72;;;;;;;32.79;39.04;96764.31;5058867;28;20222;-56
2022/07/20 10:44:27;;;;;;;6.20;5.60;;;;;;;32.84;39.39;96764.28;5053934;28;20655;-57
2022/07/20 10:46:54;;;;;;;6.47;5.95;;;;;;;32.87;40.13;96758.25;5056709;28;20203;-55
2022/07/20 10:49:59;;;;;;;6.53;6.13;;;;;;;33.07;41.13;96760.03;5061672;28;20187;-56
2022/07/20 10:52:31;;;;;;;7.00;6.28;;;;;;;33.41;39.41;96758.19;5061207;28;20509;-57
2022/07/20 10:54:59;;;;;;;6.75;6.15;;;;;;;33.64;37.74;96756.69;5061376;28;20304;-55
2022/07/20 10:57:26;;;;;;;6.07;5.60;;;;;;;33.42;37.56;96754.34;5061889;28;20203;-55
2022/07/20 11:00:11;;;;;;;6.60;6.10;;;;;;;33.34;35.83;96753.03;5064986;28;20227;-54
2022/07/20 11:02:38;;;;;;;5.70;5.20;;;;;;;33.54;35.90;96746.59;5066366;28;20309;-54
2022/07/20 11:05:05;;;;;;;5.70;5.40;;;;;;;33.74;36.43;96737.38;5055120;28;20211;-55
2022/07/20 11:07:34;;;;;;;6.40;5.90;;;;;;;33.99;35.64;96726.19;5067523;28;20207;-55
2022/07/20 11:10:19;;;;;;;5.97;5.53;;;;;;;34.13;33.37;96726.34;5070627;28;20299;-56
2022/07/20 11:12:54;;;;;;;5.47;5.07;;;;;;;34.37;35.55;96721.66;5062937;28;20195;-56
2022/07/20 11:15:21;;;;;;;6.03;5.55;;;;;;;34.58;34.07;96722.25;5066515;28;20195;-53
2022/07/20 11:17:48;;;;;;;6.55;5.95;;;;;;;34.49;32.96;96730.31;5069287;28;20203;-54
2022/07/20 11:20:17;;;;;;;6.22;5.55;;;;;;;34.47;34.51;96725.09;5064578;28;20201;-55
2022/07/20 11:22:43;;;;;;;6.35;5.95;;;;;;;34.46;34.52;96726.25;5067557;28;20211;-56
2022/07/20 11:25:11;;;;;;;6.78;6.25;;;;;;;34.29;33.70;96709.44;5063596;28;20203;-54
2022/07/20 11:27:38;;;;;;;7.80;6.25;;;;;;;34.43;34.02;96699.38;5056583;28;20242;-55
2022/07/20 11:30:07;;;;;;;6.45;6.05;;;;;;;34.54;33.75;96710.22;5055618;28;20215;-54
2022/07/20 11:32:34;;;;;;;6.30;5.90;;;;;;;34.41;36.10;96709.81;5055858;28;20222;-55
2022/07/20 11:35:00;;;;;;;6.78;6.28;;;;;;;34.47;35.56;96700.38;5055731;28;20204;-55
2022/07/20 11:37:27;;;;;;;5.90;5.40;;;;;;;34.64;34.37;96699.13;5053313;28;20243;-56
2022/07/20 11:39:53;;;;;;;6.85;6.15;;;;;;;34.71;33.14;96691.34;5056260;28;20233;-54
2022/07/20 11:42:21;;;;;;;6.70;6.10;;;;;;;34.78;34.04;96684.38;5048471;28;20595;-55
2022/07/20 11:45:00;;;;;;;6.45;5.97;;;;;;;34.90;34.65;96678.41;5055712;28;20599;-55